Time;durP1;ratioP1;P1;durP2;ratioP2;P2;SDS_P1;SDS_P2;PMS_P1;PMS_P2;Temp;Humidity;BMP_temperature;BMP_pressure;BME280_temperature;BME280_humidity;BME280_pressure;Samples;Min_cycle;Max_cycle;Signal;HPM_P1;HPM_P2
2023/10/04 00:00:49;;;;;;;11.60;3.55;;;13.10;99.90;;;;;;5096006;28;20040;-89
2023/10/04 00:03:15;;;;;;;12.85;4.10;;;13.00;99.90;;;;;;5104738;28;20043;-88
2023/10/04 00:05:41;;;;;;;8.95;1.83;;;13.10;99.90;;;;;;5078975;28;20039;-88
2023/10/04 00:08:07;;;;;;;4.07;1.23;;;13.10;99.90;;;;;;5078932;28;20035;-88
2023/10/04 00:10:33;;;;;;;5.63;2.15;;;13.10;99.90;;;;;;5096034;28;20062;-88
2023/10/04 00:12:58;;;;;;;10.13;2.20;;;13.00;99.90;;;;;;5095868;28;20400;-88
2023/10/04 00:15:27;;;;;;;11.13;2.20;;;13.00;99.90;;;;;;5079381;28;20457;-88
2023/10/04 00:17:53;;;;;;;6.88;2.05;;;13.00;99.90;;;;;;5096119;28;20039;-88
2023/10/04 00:20:19;;;;;;;12.90;3.85;;;13.00;99.90;;;;;;5078703;28;20092;-88
2023/10/04 00:22:49;;;;;;;10.70;3.50;;;13.00;99.90;;;;;;5095558;28;20046;-88
2023/10/04 00:25:23;;;;;;;11.57;3.85;;;13.10;99.90;;;;;;5095622;28;20043;-88
2023/10/04 00:27:52;;;;;;;12.20;3.85;;;13.10;99.90;;;;;;5078855;28;20040;-88
2023/10/04 00:30:18;;;;;;;7.20;1.73;;;13.10;99.90;;;;;;5078727;28;20028;-89
2023/10/04 00:32:46;;;;;;;6.18;1.63;;;13.00;99.90;;;;;;5078631;28;20035;-88
2023/10/04 00:35:15;;;;;;;8.43;1.95;;;12.90;99.90;;;;;;5078583;28;20040;-88
2023/10/04 00:37:42;;;;;;;6.45;1.52;;;12.80;99.90;;;;;;5078374;28;20071;-88
2023/10/04 00:40:12;;;;;;;9.35;1.70;;;12.80;99.90;;;;;;5078375;28;20085;-89
2023/10/04 00:42:39;;;;;;;8.38;1.60;;;12.80;99.90;;;;;;5078304;28;20039;-88
2023/10/04 00:45:05;;;;;;;5.07;1.30;;;12.80;99.90;;;;;;5095280;28;20074;-88
2023/10/04 00:47:32;;;;;;;4.57;1.20;;;12.80;99.90;;;;;;5078228;28;20035;-88
2023/10/04 00:50:07;;;;;;;6.68;1.90;;;12.80;99.90;;;;;;5095165;28;20049;-88
2023/10/04 00:52:33;;;;;;;5.75;1.63;;;12.80;99.90;;;;;;5078086;28;20051;-89
2023/10/04 00:55:00;;;;;;;5.43;1.30;;;12.80;99.90;;;;;;5070122;28;20456;-88
2023/10/04 00:57:26;;;;;;;13.23;3.65;;;12.70;99.90;;;;;;5078222;28;20494;-88
2023/10/04 00:59:52;;;;;;;4.00;1.20;;;12.70;99.90;;;;;;5077818;28;20039;-88
2023/10/04 01:02:18;;;;;;;3.45;1.00;;;12.70;99.90;;;;;;5077996;28;20118;-88
2023/10/04 01:04:43;;;;;;;3.88;1.27;;;12.70;99.90;;;;;;5094776;28;20036;-88
2023/10/04 01:07:09;;;;;;;10.50;2.65;;;12.60;99.90;;;;;;5095252;28;20040;-88
2023/10/04 01:09:35;;;;;;;3.70;0.93;;;12.70;99.90;;;;;;5094839;28;20080;-88
2023/10/04 01:12:01;;;;;;;9.52;2.72;;;12.70;99.90;;;;;;5078496;28;20131;-88
2023/10/04 01:14:32;;;;;;;5.13;1.38;;;12.70;99.90;;;;;;5077695;28;20071;-89
2023/10/04 01:16:58;;;;;;;3.30;1.13;;;12.70;99.90;;;;;;5077645;28;20035;-90
2023/10/04 01:19:25;;;;;;;6.80;1.05;;;12.60;99.90;;;;;;5077727;28;20081;-89
2023/10/04 01:21:51;;;;;;;10.20;2.60;;;12.60;99.90;;;;;;5078143;28;20399;-88
2023/10/04 01:24:17;;;;;;;5.55;1.45;;;12.60;99.90;;;;;;5094678;28;20502;-89
2023/10/04 01:26:43;;;;;;;6.95;1.33;;;12.60;99.90;;;;;;5077635;28;20028;-88
2023/10/04 01:29:11;;;;;;;9.55;2.78;;;12.60;99.90;;;;;;5094115;28;20483;-89
2023/10/04 01:31:38;;;;;;;8.55;1.60;;;12.60;99.90;;;;;;5094702;28;20112;-88
2023/10/04 01:34:06;;;;;;;5.70;1.38;;;12.60;99.90;;;;;;5077451;28;20040;-88
2023/10/04 01:36:32;;;;;;;11.18;2.95;;;12.60;99.90;;;;;;5077639;28;20114;-88
2023/10/04 01:38:58;;;;;;;5.00;1.15;;;12.60;99.90;;;;;;5094136;28;20039;-88
2023/10/04 01:41:25;;;;;;;5.60;1.27;;;12.60;99.90;;;;;;5078046;28;20044;-88
2023/10/04 01:43:53;;;;;;;9.07;2.70;;;12.50;99.90;;;;;;5077741;28;20089;-88
2023/10/04 01:46:19;;;;;;;4.47;1.15;;;12.50;99.90;;;;;;5077632;28;20032;-88
2023/10/04 01:48:45;;;;;;;4.43;1.20;;;12.50;99.90;;;;;;5094318;28;20035;-88
2023/10/04 01:51:12;;;;;;;4.90;1.20;;;12.50;99.90;;;;;;5077875;28;20398;-88
2023/10/04 01:53:42;;;;;;;7.97;1.52;;;12.50;99.90;;;;;;5077631;28;20078;-88
2023/10/04 01:56:08;;;;;;;10.10;1.65;;;12.40;99.90;;;;;;5077754;28;20051;-88
2023/10/04 01:58:34;;;;;;;10.80;2.83;;;12.40;99.90;;;;;;5094122;28;20043;-88
2023/10/04 02:01:03;;;;;;;4.53;0.88;;;12.50;99.90;;;;;;5077625;28;20068;-88
2023/10/04 02:03:29;;;;;;;5.13;1.35;;;12.50;99.90;;;;;;5094064;28;20043;-88
2023/10/04 02:05:58;;;;;;;4.93;1.35;;;12.40;99.90;;;;;;5084703;28;20043;-88
2023/10/04 02:08:24;;;;;;;4.95;1.33;;;12.40;99.90;;;;;;5077451;28;20032;-88
2023/10/04 02:10:52;;;;;;;13.50;3.60;;;12.40;99.90;;;;;;5076910;28;20494;-88
2023/10/04 02:13:19;;;;;;;5.72;1.50;;;12.40;99.90;;;;;;5094412;28;20414;-88
2023/10/04 02:15:52;;;;;;;8.40;2.03;;;12.40;99.90;;;;;;5094016;28;20054;-88
2023/10/04 02:18:19;;;;;;;3.65;1.38;;;12.30;99.90;;;;;;5094128;28;20047;-88
2023/10/04 02:20:53;;;;;;;11.45;3.60;;;12.30;99.90;;;;;;5094329;28;20414;-88
2023/10/04 02:23:19;;;;;;;7.65;1.70;;;12.30;99.90;;;;;;5077400;28;20040;-88
2023/10/04 02:25:48;;;;;;;8.10;1.58;;;12.30;99.90;;;;;;5077247;28;20084;-87
2023/10/04 02:28:23;;;;;;;8.05;1.80;;;12.30;99.90;;;;;;5076775;28;20039;-87
2023/10/04 02:30:48;;;;;;;9.60;3.20;;;12.20;99.90;;;;;;5095984;28;20058;-87
2023/10/04 02:33:15;;;;;;;4.78;1.30;;;12.20;99.90;;;;;;5104064;28;20036;-88
2023/10/04 02:35:45;;;;;;;5.72;1.20;;;12.20;99.90;;;;;;5095558;28;20032;-88
2023/10/04 02:38:26;;;;;;;11.00;1.90;;;12.20;99.90;;;;;;5080956;28;20035;-88
2023/10/04 02:40:53;;;;;;;4.97;1.67;;;12.30;99.90;;;;;;5099869;28;20054;-88
2023/10/04 02:43:28;;;;;;;4.53;1.50;;;12.30;99.90;;;;;;5098697;28;20114;-88
2023/10/04 02:45:54;;;;;;;6.43;1.15;;;12.30;99.90;;;;;;5105832;28;20047;-88
2023/10/04 02:48:20;;;;;;;4.35;1.00;;;12.30;99.90;;;;;;5092492;28;20115;-88
2023/10/04 02:50:49;;;;;;;4.00;1.60;;;12.30;99.90;;;;;;5088997;28;20468;-88
2023/10/04 02:53:23;;;;;;;4.55;1.30;;;12.30;99.90;;;;;;5097867;28;20031;-88
2023/10/04 02:55:56;;;;;;;6.40;1.48;;;12.30;99.90;;;;;;5105925;28;20040;-88
2023/10/04 02:58:22;;;;;;;7.00;1.92;;;12.30;99.90;;;;;;5080623;28;20515;-89
2023/10/04 03:00:49;;;;;;;8.48;1.63;;;12.30;99.90;;;;;;5080083;28;20569;-88
2023/10/04 03:03:19;;;;;;;6.70;1.30;;;12.30;99.90;;;;;;5097497;28;20039;-88
2023/10/04 03:05:45;;;;;;;7.93;1.60;;;12.30;99.90;;;;;;5079965;28;20077;-88
2023/10/04 03:08:15;;;;;;;8.60;2.60;;;12.30;99.90;;;;;;5097306;28;20040;-88
2023/10/04 03:10:41;;;;;;;5.70;1.73;;;12.30;99.90;;;;;;5080101;28;20116;-89
2023/10/04 03:13:16;;;;;;;13.98;2.10;;;12.30;99.90;;;;;;5097360;28;20043;-89
2023/10/04 03:15:45;;;;;;;4.63;1.45;;;12.20;99.90;;;;;;5097121;28;20066;-88
2023/10/04 03:18:15;;;;;;;12.95;3.50;;;12.20;99.90;;;;;;5096873;28;20717;-88
2023/10/04 03:20:54;;;;;;;8.23;1.50;;;12.20;99.90;;;;;;5080077;28;20039;-88
2023/10/04 03:23:23;;;;;;;4.95;1.52;;;12.20;99.90;;;;;;5097015;28;20110;-88
2023/10/04 03:25:52;;;;;;;7.63;1.70;;;12.10;99.90;;;;;;5079804;28;20036;-88
2023/10/04 03:28:19;;;;;;;5.97;1.65;;;12.10;99.90;;;;;;5097129;28;20619;-88
2023/10/04 03:30:45;;;;;;;7.70;1.55;;;12.10;99.90;;;;;;5079429;28;20122;-88
2023/10/04 03:33:11;;;;;;;13.05;3.53;;;12.10;99.90;;;;;;5096736;28;20070;-88
2023/10/04 03:35:39;;;;;;;15.35;3.60;;;12.10;99.90;;;;;;5096641;28;20388;-88
2023/10/04 03:38:07;;;;;;;13.10;3.60;;;12.20;99.90;;;;;;5096735;28;20043;-88
2023/10/04 03:40:37;;;;;;;7.45;1.48;;;12.20;99.90;;;;;;5079673;28;20039;-88
2023/10/04 03:43:07;;;;;;;12.77;3.90;;;12.20;99.90;;;;;;5079795;28;20071;-88
2023/10/04 03:45:34;;;;;;;6.03;1.42;;;12.20;99.90;;;;;;5079481;28;20126;-88
2023/10/04 03:48:00;;;;;;;13.73;3.63;;;12.10;99.90;;;;;;5079500;28;20032;-88
2023/10/04 03:50:27;;;;;;;4.03;1.13;;;12.10;99.90;;;;;;5095712;28;20118;-89
2023/10/04 03:52:57;;;;;;;7.50;1.45;;;12.10;99.90;;;;;;5079838;28;20444;-88
2023/10/04 03:55:25;;;;;;;5.32;1.33;;;12.00;99.90;;;;;;5079753;28;20067;-87
2023/10/04 03:57:51;;;;;;;4.13;1.33;;;12.00;99.90;;;;;;5079192;28;20046;-89
2023/10/04 04:00:18;;;;;;;4.32;1.60;;;12.00;99.90;;;;;;5079009;28;20515;-89
2023/10/04 04:02:44;;;;;;;13.50;3.50;;;12.00;99.90;;;;;;5079080;28;20050;-88
2023/10/04 04:05:21;;;;;;;12.10;1.52;;;12.00;99.90;;;;;;5079245;28;20039;-88
2023/10/04 04:07:48;;;;;;;6.70;1.77;;;12.00;99.90;;;;;;5079266;28;20047;-89
2023/10/04 04:10:15;;;;;;;5.57;1.58;;;12.00;99.90;;;;;;5095578;28;20036;-88
2023/10/04 04:12:42;;;;;;;7.82;2.67;;;11.90;99.90;;;;;;5079125;28;20058;-88
2023/10/04 04:15:08;;;;;;;11.15;1.83;;;11.90;99.90;;;;;;5078887;28;20043;-88
2023/10/04 04:17:39;;;;;;;3.92;1.48;;;11.90;99.90;;;;;;5095504;28;20620;-88
2023/10/04 04:20:08;;;;;;;9.48;1.70;;;11.90;99.90;;;;;;5078896;28;20039;-88
2023/10/04 04:22:34;;;;;;;8.88;1.58;;;11.80;99.90;;;;;;5078778;28;20101;-88
2023/10/04 04:25:00;;;;;;;13.57;3.45;;;11.80;99.90;;;;;;5095510;28;20473;-88
2023/10/04 04:27:27;;;;;;;14.10;3.85;;;11.90;99.90;;;;;;5078793;28;20034;-89
2023/10/04 04:29:53;;;;;;;7.60;1.52;;;12.00;99.90;;;;;;5095138;28;20039;-89
2023/10/04 04:32:26;;;;;;;12.27;4.07;;;11.90;99.90;;;;;;5095501;28;20085;-88
2023/10/04 04:34:56;;;;;;;4.97;1.55;;;11.90;99.90;;;;;;5095518;28;20172;-88
2023/10/04 04:37:29;;;;;;;7.63;1.77;;;11.90;99.90;;;;;;5095539;28;20043;-88
2023/10/04 04:39:54;;;;;;;8.90;2.25;;;11.90;99.90;;;;;;5078252;28;20083;-88
2023/10/04 04:42:30;;;;;;;6.35;1.38;;;11.90;99.90;;;;;;5095485;28;20062;-88
2023/10/04 04:44:56;;;;;;;7.55;1.42;;;11.90;99.90;;;;;;5095267;28;20054;-88
2023/10/04 04:47:22;;;;;;;7.68;1.10;;;11.90;99.90;;;;;;5078393;28;20537;-88
2023/10/04 04:49:48;;;;;;;5.03;1.05;;;11.90;99.90;;;;;;5077869;28;20579;-88
2023/10/04 04:52:14;;;;;;;6.32;2.13;;;11.90;99.90;;;;;;5078745;28;20035;-88
2023/10/04 04:54:40;;;;;;;11.30;3.30;;;11.90;99.90;;;;;;5078269;28;20051;-88
2023/10/04 04:57:07;;;;;;;7.97;1.52;;;12.00;99.90;;;;;;5095545;28;20068;-88
2023/10/04 04:59:33;;;;;;;6.95;1.42;;;12.00;99.90;;;;;;5094963;28;20051;-88
2023/10/04 05:01:59;;;;;;;7.30;1.63;;;12.00;99.90;;;;;;5077170;28;20096;-88
2023/10/04 05:04:25;;;;;;;11.30;3.90;;;12.00;99.90;;;;;;5077756;28;20081;-88
2023/10/04 05:06:51;;;;;;;7.75;1.77;;;12.10;99.90;;;;;;5094703;28;20031;-88
2023/10/04 05:09:17;;;;;;;10.27;1.80;;;12.10;99.90;;;;;;5094813;28;20036;-88
2023/10/04 05:11:44;;;;;;;12.27;4.30;;;12.00;99.90;;;;;;5078124;28;20429;-88
2023/10/04 05:14:11;;;;;;;5.97;1.42;;;12.10;99.90;;;;;;5078195;28;20031;-88
2023/10/04 05:16:37;;;;;;;10.45;2.53;;;12.20;99.90;;;;;;5077747;28;20050;-88
2023/10/04 05:19:09;;;;;;;4.88;1.63;;;12.10;99.90;;;;;;5094424;28;20047;-88
2023/10/04 05:21:36;;;;;;;10.80;3.90;;;12.10;99.90;;;;;;5077639;28;20402;-88
2023/10/04 05:24:03;;;;;;;12.73;4.32;;;12.10;99.90;;;;;;5077549;28;20051;-88
2023/10/04 05:26:29;;;;;;;5.85;1.48;;;12.20;99.90;;;;;;5094559;28;20051;-88
2023/10/04 05:28:55;;;;;;;5.63;1.48;;;12.20;99.90;;;;;;5094218;28;20050;-88
2023/10/04 05:31:21;;;;;;;5.10;1.30;;;12.10;99.90;;;;;;5094412;28;20105;-87
2023/10/04 05:33:46;;;;;;;11.48;2.17;;;12.00;99.90;;;;;;5077815;28;20052;-88
2023/10/04 05:36:12;;;;;;;4.15;1.13;;;12.00;99.90;;;;;;5094453;28;20057;-88
2023/10/04 05:38:38;;;;;;;6.03;1.73;;;12.00;99.90;;;;;;5080556;28;20043;-87
2023/10/04 05:41:03;;;;;;;6.40;1.83;;;12.00;99.90;;;;;;5074934;28;20165;-88
2023/10/04 05:43:29;;;;;;;11.82;4.00;;;12.00;99.90;;;;;;5083433;28;20068;-88
2023/10/04 05:45:56;;;;;;;7.43;1.73;;;12.00;99.90;;;;;;5092830;28;20411;-88
2023/10/04 05:48:21;;;;;;;6.68;2.08;;;12.00;99.90;;;;;;5080776;28;20036;-88
2023/10/04 05:50:50;;;;;;;8.68;1.88;;;11.90;99.90;;;;;;5086209;28;20045;-88
2023/10/04 05:53:20;;;;;;;10.68;2.03;;;11.90;99.90;;;;;;5086078;28;20050;-89
2023/10/04 05:55:45;;;;;;;8.02;1.88;;;11.90;99.90;;;;;;5084321;28;20559;-88
2023/10/04 05:58:11;;;;;;;8.88;1.98;;;11.90;99.90;;;;;;5086052;28;20039;-88
2023/10/04 06:00:40;;;;;;;7.85;2.05;;;11.90;99.90;;;;;;5102580;28;20406;-88
2023/10/04 06:03:15;;;;;;;10.13;2.10;;;11.90;99.90;;;;;;5094353;28;20048;-88
2023/10/04 06:05:41;;;;;;;6.97;2.05;;;11.90;99.90;;;;;;5083366;28;20126;-88
2023/10/04 06:08:15;;;;;;;10.80;2.10;;;11.90;99.90;;;;;;5095556;28;20340;-88
2023/10/04 06:10:45;;;;;;;4.32;1.17;;;11.80;99.90;;;;;;5097015;28;20042;-88
2023/10/04 06:13:13;;;;;;;13.23;4.57;;;11.90;99.90;;;;;;5096663;28;20088;-87
2023/10/04 06:15:47;;;;;;;8.77;1.92;;;12.00;99.90;;;;;;5083729;28;20043;-88
2023/10/04 06:18:17;;;;;;;15.48;4.63;;;12.00;99.90;;;;;;5099809;28;20048;-88
2023/10/04 06:20:43;;;;;;;7.25;1.45;;;12.00;99.90;;;;;;5089535;28;20040;-88
2023/10/04 06:23:14;;;;;;;9.18;2.28;;;12.10;99.90;;;;;;5082914;28;20047;-88
2023/10/04 06:25:49;;;;;;;11.40;2.55;;;12.10;99.90;;;;;;5083769;28;20039;-87
2023/10/04 06:28:15;;;;;;;12.38;2.05;;;12.10;99.90;;;;;;5100089;28;20085;-88
2023/10/04 06:30:42;;;;;;;4.72;1.45;;;12.20;99.90;;;;;;5082944;28;20059;-87
2023/10/04 06:33:10;;;;;;;6.82;1.35;;;12.20;99.90;;;;;;5092219;27;20035;-87
2023/10/04 06:35:37;;;;;;;10.68;2.20;;;12.30;99.90;;;;;;5107998;27;20494;-88
2023/10/04 06:38:08;;;;;;;5.80;1.67;;;12.30;99.90;;;;;;5091807;27;20113;-88
2023/10/04 06:40:36;;;;;;;7.32;1.80;;;12.30;99.90;;;;;;5090876;27;20084;-88
2023/10/04 06:43:07;;;;;;;6.80;1.85;;;12.30;99.90;;;;;;5108754;27;20547;-88
2023/10/04 06:45:35;;;;;;;13.02;4.05;;;12.40;99.90;;;;;;5088711;27;20422;-88
2023/10/04 06:48:03;;;;;;;10.02;2.00;;;12.50;99.90;;;;;;5087770;28;20084;-88
2023/10/04 06:50:35;;;;;;;5.90;1.48;;;12.50;99.90;;;;;;5101777;28;20038;-87
2023/10/04 06:53:02;;;;;;;11.32;2.10;;;12.50;99.90;;;;;;5089582;28;20050;-88
2023/10/04 06:55:30;;;;;;;12.85;2.58;;;12.50;99.90;;;;;;5101159;28;20046;-88
2023/10/04 06:57:56;;;;;;;8.48;2.03;;;12.60;99.90;;;;;;5080065;28;20043;-88
2023/10/04 07:00:26;;;;;;;9.23;2.05;;;12.60;99.90;;;;;;5096804;28;20045;-88
2023/10/04 07:02:54;;;;;;;7.10;1.75;;;12.70;99.90;;;;;;5078639;28;20071;-88
2023/10/04 07:05:21;;;;;;;5.47;1.77;;;12.70;99.90;;;;;;5078098;28;20089;-88
2023/10/04 07:07:49;;;;;;;12.07;2.35;;;12.80;99.90;;;;;;5078946;28;20035;-89
2023/10/04 07:10:15;;;;;;;11.10;3.15;;;12.80;99.90;;;;;;5079715;28;20028;-88
2023/10/04 07:12:45;;;;;;;6.43;2.05;;;12.80;99.90;;;;;;5078258;28;20062;-88
2023/10/04 07:15:15;;;;;;;7.80;1.90;;;12.90;99.90;;;;;;5081838;28;20036;-87
2023/10/04 07:17:41;;;;;;;8.35;1.83;;;12.90;99.90;;;;;;5098870;28;20039;-88
2023/10/04 07:20:15;;;;;;;9.98;2.33;;;12.90;99.90;;;;;;5088147;28;20103;-88
2023/10/04 07:22:46;;;;;;;9.60;2.00;;;12.90;99.90;;;;;;5079262;28;20036;-87
2023/10/04 07:25:13;;;;;;;8.45;2.10;;;12.90;99.90;;;;;;5102201;28;20055;-88
2023/10/04 07:27:43;;;;;;;4.53;1.40;;;13.00;99.90;;;;;;5088504;28;20046;-88
2023/10/04 07:30:13;;;;;;;10.80;2.30;;;13.00;99.90;;;;;;5088214;28;20042;-88
2023/10/04 07:32:41;;;;;;;11.55;3.67;;;13.00;99.90;;;;;;5096576;28;20051;-88
2023/10/04 07:35:12;;;;;;;4.10;1.42;;;13.00;99.90;;;;;;5097015;28;20502;-88
2023/10/04 07:37:39;;;;;;;11.68;1.65;;;13.00;99.90;;;;;;5080178;28;20057;-88
2023/10/04 07:40:09;;;;;;;7.28;1.75;;;13.10;99.90;;;;;;5096413;28;20043;-88
2023/10/04 07:42:38;;;;;;;6.70;2.08;;;13.10;99.90;;;;;;5084739;28;20073;-88
2023/10/04 07:45:07;;;;;;;14.35;5.00;;;13.20;99.90;;;;;;5080839;28;20059;-88
2023/10/04 07:47:37;;;;;;;5.75;2.00;;;13.30;99.90;;;;;;5100505;28;20035;-88
2023/10/04 07:50:11;;;;;;;4.95;1.58;;;13.30;99.90;;;;;;5079442;28;20448;-88
2023/10/04 07:52:38;;;;;;;13.88;4.40;;;13.40;99.90;;;;;;5101653;28;20067;-88
2023/10/04 07:55:05;;;;;;;9.07;2.92;;;13.50;99.90;;;;;;5096832;28;20043;-88
2023/10/04 07:57:35;;;;;;;14.63;4.63;;;13.50;99.90;;;;;;5100830;28;20488;-88
2023/10/04 08:00:06;;;;;;;14.73;4.60;;;13.60;99.90;;;;;;5088392;28;20157;-88
2023/10/04 08:02:31;;;;;;;7.57;1.83;;;13.70;99.90;;;;;;5079641;28;20036;-88
2023/10/04 08:04:57;;;;;;;6.22;1.40;;;13.80;99.90;;;;;;5078963;28;20040;-88
2023/10/04 08:07:23;;;;;;;18.50;3.22;;;13.90;99.90;;;;;;5095850;28;20040;-88
2023/10/04 08:09:48;;;;;;;9.77;2.28;;;13.90;99.90;;;;;;5079209;28;20027;-88
2023/10/04 08:12:14;;;;;;;16.50;4.55;;;13.90;99.90;;;;;;5085918;28;20507;-87
2023/10/04 08:14:40;;;;;;;6.78;1.88;;;14.00;99.90;;;;;;5079194;28;20115;-88
2023/10/04 08:17:06;;;;;;;8.57;2.00;;;14.10;99.90;;;;;;5096070;28;20132;-88
2023/10/04 08:19:33;;;;;;;14.85;5.10;;;14.10;99.90;;;;;;5095800;28;20170;-87
2023/10/04 08:21:58;;;;;;;14.02;4.68;;;14.30;99.90;;;;;;5095501;28;20036;-88
2023/10/04 08:24:24;;;;;;;13.90;4.88;;;14.40;99.90;;;;;;5078611;28;20039;-87
2023/10/04 08:26:50;;;;;;;5.63;1.35;;;14.50;99.90;;;;;;5078346;28;20039;-87
2023/10/04 08:29:15;;;;;;;7.68;2.25;;;14.40;99.90;;;;;;5104106;28;20036;-87
2023/10/04 08:31:41;;;;;;;5.75;2.03;;;14.40;99.90;;;;;;5095598;28;20039;-87
2023/10/04 08:34:07;;;;;;;9.80;2.50;;;14.40;99.90;;;;;;5086899;28;20067;-87
2023/10/04 08:36:33;;;;;;;14.52;4.72;;;14.50;99.90;;;;;;5082665;28;20070;-87
2023/10/04 08:39:01;;;;;;;15.93;5.05;;;14.60;99.90;;;;;;5103694;28;20039;-87
2023/10/04 08:41:27;;;;;;;12.80;4.65;;;14.80;99.90;;;;;;5087314;28;20069;-87
2023/10/04 08:43:53;;;;;;;13.20;2.78;;;14.90;99.90;;;;;;5103834;28;20481;-87
2023/10/04 08:46:19;;;;;;;11.82;4.78;;;14.90;99.90;;;;;;5095360;28;20510;-87
2023/10/04 08:48:53;;;;;;;14.07;4.93;;;14.90;99.90;;;;;;5094949;28;20047;-87
2023/10/04 08:51:54;;;;;;;10.15;2.22;;;15.10;99.90;;;;;;5103531;28;20043;-87
2023/10/04 08:54:24;;;;;;;17.13;5.10;;;15.10;99.90;;;;;;5070736;28;20130;-88
2023/10/04 08:57:19;;;;;;;9.23;2.38;;;15.20;99.90;;;;;;5077781;28;20545;-88
2023/10/04 08:59:46;;;;;;;15.75;4.85;;;15.20;99.90;;;;;;5086335;28;20039;-87
2023/10/04 09:02:14;;;;;;;11.18;2.15;;;15.30;99.90;;;;;;5101344;28;20098;-85
2023/10/04 09:04:40;;;;;;;9.00;2.28;;;15.30;99.90;;;;;;5088287;28;20035;-88
2023/10/04 09:07:08;;;;;;;15.57;5.07;;;15.30;99.90;;;;;;5079693;28;20114;-87
2023/10/04 09:09:39;;;;;;;6.57;1.35;;;15.40;99.90;;;;;;5078988;28;20062;-88
2023/10/04 09:12:09;;;;;;;17.58;5.30;;;15.40;99.90;;;;;;5088661;28;20482;-88
2023/10/04 09:14:37;;;;;;;10.93;2.83;;;15.50;99.90;;;;;;5095822;28;20122;-88
2023/10/04 09:17:14;;;;;;;9.45;2.58;;;15.60;99.90;;;;;;5103733;28;20510;-87
2023/10/04 09:19:41;;;;;;;15.35;5.28;;;15.60;99.90;;;;;;5103341;28;20073;-88
2023/10/04 09:22:08;;;;;;;8.85;2.97;;;15.70;99.90;;;;;;5103141;28;20047;-88
2023/10/04 09:24:53;;;;;;;11.82;2.10;;;15.80;99.90;;;;;;5077710;28;20043;-88
2023/10/04 09:27:19;;;;;;;15.63;5.50;;;15.80;99.90;;;;;;5079071;28;20429;-88
2023/10/04 09:29:45;;;;;;;12.00;3.10;;;15.80;99.90;;;;;;5081156;28;20027;-88
2023/10/04 09:32:10;;;;;;;11.00;2.97;;;15.90;99.90;;;;;;5078957;28;20034;-87
2023/10/04 09:34:36;;;;;;;16.58;4.82;;;15.90;99.90;;;;;;5094052;28;20028;-88
2023/10/04 09:37:17;;;;;;;14.63;4.90;;;16.00;99.90;;;;;;5077920;28;20039;-88
2023/10/04 09:39:42;;;;;;;12.75;2.60;;;16.10;99.90;;;;;;5091976;28;20043;-88
2023/10/04 09:42:14;;;;;;;7.80;1.60;;;16.10;99.90;;;;;;5077907;28;20036;-88
2023/10/04 09:44:40;;;;;;;13.35;4.70;;;16.10;99.90;;;;;;5081311;28;20639;-89
2023/10/04 09:47:07;;;;;;;7.00;1.70;;;16.20;99.90;;;;;;5097089;28;20036;-88
2023/10/04 09:49:35;;;;;;;15.50;5.13;;;16.20;99.90;;;;;;5077959;28;20039;-88
2023/10/04 09:52:07;;;;;;;6.00;2.03;;;16.30;99.90;;;;;;5075227;28;20057;-89
2023/10/04 09:54:34;;;;;;;13.95;4.70;;;16.40;99.90;;;;;;5090432;28;20478;-88
2023/10/04 09:57:07;;;;;;;12.77;4.97;;;16.50;99.90;;;;;;5076505;28;20452;-87
2023/10/04 09:59:34;;;;;;;6.65;1.88;;;16.50;99.90;;;;;;5077227;28;20118;-88
2023/10/04 10:02:01;;;;;;;15.18;5.03;;;16.50;99.90;;;;;;5077097;28;20348;-88
2023/10/04 10:04:28;;;;;;;9.52;2.72;;;16.60;99.90;;;;;;5075619;28;20035;-88
2023/10/04 10:07:15;;;;;;;13.45;4.53;;;16.70;99.90;;;;;;5080251;28;20051;-88
2023/10/04 10:09:41;;;;;;;11.02;3.03;;;16.80;99.90;;;;;;5085495;28;20085;-88
2023/10/04 10:12:08;;;;;;;16.27;5.05;;;16.70;99.90;;;;;;5085106;28;20035;-88
2023/10/04 10:14:34;;;;;;;14.20;4.35;;;16.80;99.90;;;;;;5077461;28;20036;-88
2023/10/04 10:17:00;;;;;;;16.05;5.07;;;16.90;99.90;;;;;;5077926;28;20039;-88
2023/10/04 10:19:27;;;;;;;7.72;2.42;;;16.80;99.90;;;;;;5081147;28;20083;-88
2023/10/04 10:22:25;;;;;;;10.65;2.38;;;16.80;99.90;;;;;;5078113;28;20035;-88
2023/10/04 10:24:56;;;;;;;13.20;4.50;;;16.90;99.90;;;;;;5086240;28;20081;-88
2023/10/04 10:27:28;;;;;;;13.83;4.87;;;16.90;99.90;;;;;;5103870;28;20199;-88
2023/10/04 10:29:59;;;;;;;12.60;4.40;;;17.00;99.90;;;;;;5085313;28;20330;-88
2023/10/04 10:32:25;;;;;;;11.63;3.03;;;17.00;99.90;;;;;;5103653;28;20045;-88
2023/10/04 10:35:06;;;;;;;13.50;4.70;;;17.00;99.90;;;;;;5084650;28;20548;-88
2023/10/04 10:37:35;;;;;;;14.70;4.93;;;16.90;99.90;;;;;;5102262;28;20383;-88
2023/10/04 10:40:07;;;;;;;14.75;5.05;;;16.90;99.90;;;;;;5099153;28;20096;-88
2023/10/04 10:43:11;;;;;;;9.35;1.70;;;17.00;99.90;;;;;;5083963;28;20058;-88
2023/10/04 10:45:37;;;;;;;17.20;5.00;;;17.00;99.90;;;;;;5085496;28;20493;-88
2023/10/04 10:48:08;;;;;;;10.25;2.35;;;17.10;99.90;;;;;;5077441;28;20032;-89
2023/10/04 10:50:39;;;;;;;13.02;4.60;;;17.10;99.90;;;;;;5079869;28;20032;-88
2023/10/04 10:53:13;;;;;;;10.00;2.28;;;17.20;99.90;;;;;;5082242;28;20517;-88
2023/10/04 10:55:42;;;;;;;8.77;2.60;;;17.20;99.90;;;;;;5102206;28;20047;-89
2023/10/04 10:58:08;;;;;;;13.45;5.30;;;17.20;99.90;;;;;;5085455;28;20086;-89
2023/10/04 11:00:35;;;;;;;12.82;5.15;;;17.20;99.90;;;;;;5077834;28;20077;-88
2023/10/04 11:03:05;;;;;;;9.82;2.40;;;17.30;99.90;;;;;;5080555;28;20081;-89
2023/10/04 11:05:31;;;;;;;13.85;4.88;;;17.20;99.90;;;;;;5097346;28;20440;-88
2023/10/04 11:07:57;;;;;;;15.27;5.30;;;17.20;99.90;;;;;;5089912;27;20034;-89
2023/10/04 11:10:25;;;;;;;10.82;2.70;;;17.30;99.90;;;;;;5090145;28;20036;-88
2023/10/04 11:12:54;;;;;;;13.35;4.80;;;17.10;99.90;;;;;;5080082;28;20494;-88
2023/10/04 11:15:23;;;;;;;9.18;3.10;;;17.10;99.90;;;;;;5096955;28;20418;-88
2023/10/04 11:17:50;;;;;;;15.95;5.47;;;17.10;99.90;;;;;;5096639;28;20078;-88
2023/10/04 11:20:21;;;;;;;15.77;5.32;;;17.10;99.90;;;;;;5080595;28;20404;-88
2023/10/04 11:22:49;;;;;;;14.25;5.22;;;17.10;99.90;;;;;;5080059;28;20050;-89
2023/10/04 11:25:15;;;;;;;14.50;5.53;;;17.00;99.90;;;;;;5079780;28;20043;-88
2023/10/04 11:27:50;;;;;;;15.18;5.43;;;17.00;99.90;;;;;;5099028;28;20044;-88
2023/10/04 11:30:17;;;;;;;7.22;2.22;;;17.00;99.90;;;;;;5080134;28;20490;-89
2023/10/04 11:32:46;;;;;;;15.60;5.40;;;16.90;99.90;;;;;;5080052;28;20042;-89
2023/10/04 11:35:13;;;;;;;10.50;2.47;;;16.80;99.90;;;;;;5080001;28;20040;-88
2023/10/04 11:37:47;;;;;;;12.45;3.28;;;16.80;99.90;;;;;;5079718;28;20043;-88
2023/10/04 11:40:16;;;;;;;14.00;5.60;;;16.80;99.90;;;;;;5096268;28;20510;-88
2023/10/04 11:42:42;;;;;;;13.88;5.25;;;16.80;99.90;;;;;;5079753;28;20051;-88
2023/10/04 11:45:23;;;;;;;8.30;1.98;;;16.80;99.90;;;;;;5096783;28;20037;-88
2023/10/04 11:48:00;;;;;;;13.63;5.65;;;16.80;99.90;;;;;;5079313;28;20032;-88
2023/10/04 11:50:42;;;;;;;13.80;5.25;;;16.80;99.90;;;;;;5079090;28;20047;-88
2023/10/04 11:53:08;;;;;;;14.70;5.57;;;16.80;99.90;;;;;;5080779;28;20039;-87
2023/10/04 11:55:37;;;;;;;8.02;2.63;;;16.80;99.90;;;;;;5080269;28;20035;-87
2023/10/04 11:58:04;;;;;;;15.27;5.35;;;16.80;99.90;;;;;;5096601;28;20506;-87
2023/10/04 12:00:30;;;;;;;16.42;5.68;;;16.80;99.90;;;;;;5082563;28;20121;-87
2023/10/04 12:02:56;;;;;;;16.55;5.80;;;16.80;99.90;;;;;;5104538;28;20402;-86
2023/10/04 12:05:21;;;;;;;14.90;5.72;;;16.80;99.90;;;;;;5087301;28;20079;-87
2023/10/04 12:07:47;;;;;;;14.20;5.30;;;16.80;99.90;;;;;;5085848;28;20038;-86
2023/10/04 12:10:13;;;;;;;15.00;4.95;;;16.80;99.90;;;;;;5080703;28;20061;-86
2023/10/04 12:12:40;;;;;;;9.65;2.78;;;16.70;99.90;;;;;;5086610;28;20480;-87
2023/10/04 12:15:07;;;;;;;14.95;5.47;;;16.60;99.90;;;;;;5104554;28;20043;-86
2023/10/04 12:17:34;;;;;;;14.98;5.32;;;16.60;99.90;;;;;;5084066;28;20085;-87
2023/10/04 12:20:04;;;;;;;8.07;2.50;;;16.70;99.90;;;;;;5070498;28;20032;-87
2023/10/04 12:22:30;;;;;;;17.17;5.22;;;16.60;99.90;;;;;;5079089;28;20118;-87
2023/10/04 12:24:56;;;;;;;14.02;5.20;;;16.70;99.90;;;;;;5078735;28;20152;-87
2023/10/04 12:27:24;;;;;;;17.13;5.85;;;16.80;99.90;;;;;;5095371;28;20043;-87
2023/10/04 12:29:50;;;;;;;9.75;2.22;;;16.90;99.90;;;;;;5085759;28;20488;-87
2023/10/04 12:32:19;;;;;;;15.75;5.20;;;16.90;99.90;;;;;;5103917;28;20119;-87
2023/10/04 12:34:45;;;;;;;14.55;5.07;;;16.90;99.90;;;;;;5078333;28;20046;-87
2023/10/04 12:37:12;;;;;;;10.45;2.78;;;17.00;99.90;;;;;;5078665;28;20050;-87
2023/10/04 12:39:38;;;;;;;12.10;5.20;;;17.00;99.90;;;;;;5078717;28;20093;-87
2023/10/04 12:42:04;;;;;;;13.40;4.97;;;17.00;99.90;;;;;;5104116;28;20063;-87
2023/10/04 12:44:30;;;;;;;15.57;4.82;;;17.10;99.90;;;;;;5082679;28;20519;-87
2023/10/04 12:46:58;;;;;;;13.13;4.90;;;17.10;99.90;;;;;;5086842;28;20551;-86
2023/10/04 12:49:24;;;;;;;11.05;4.72;;;17.20;99.90;;;;;;5083252;28;20032;-87